AVA9541 SKCG-SKBO
Flight info
| Callsign | AVA9541 |
|---|---|
| Flight time | 0h 59m |
| Altitude | 31000 |
| Route | ILMIK2A UGALU UL305 ATANA ATANA4E |
| Aircraft | A320/M-SDE3FGHIRWY/LB1 |
Departure
| Time | 2026-05-05 22:22 |
|---|---|
| Airport | Rafael Nuñez International Airport (SKCG) |
Arrival
| Time | 2026-05-05 23:22 |
|---|---|
| Airport | El Dorado International Airport (SKBO) |
| Time | Latitude | Longitude | Altitude | Speed | Heading |
|---|---|---|---|---|---|
| 2026-05-05 22:00 | 10.44531 | -75.51555 | 16 ft | 0 kts | 271° |
| 2026-05-05 22:13 | 10.44531 | -75.51549 | 16 ft | 2 kts | 271° |
| 2026-05-05 22:14 | 10.44531 | -75.51532 | 16 ft | 2 kts | 271° |
| 2026-05-05 22:14 | 10.44531 | -75.51516 | 16 ft | 2 kts | 279° |
| 2026-05-05 22:14 | 10.44522 | -75.51505 | 18 ft | 2 kts | 356° |
| 2026-05-05 22:14 | 10.44508 | -75.51504 | 16 ft | 0 kts | 1° |
| 2026-05-05 22:16 | 10.44515 | -75.51504 | 16 ft | 5 kts | 1° |
| 2026-05-05 22:16 | 10.44555 | -75.51483 | 16 ft | 8 kts | 59° |
| 2026-05-05 22:16 | 10.44555 | -75.51430 | 16 ft | 8 kts | 94° |
| 2026-05-05 22:17 | 10.44551 | -75.51365 | 16 ft | 9 kts | 94° |
| 2026-05-05 22:17 | 10.44541 | -75.51307 | 16 ft | 8 kts | 114° |
| 2026-05-05 22:17 | 10.44500 | -75.51281 | 16 ft | 7 kts | 171° |
| 2026-05-05 22:17 | 10.44408 | -75.51285 | 16 ft | 18 kts | 182° |
| 2026-05-05 22:18 | 10.44270 | -75.51290 | 14 ft | 22 kts | 182° |
| 2026-05-05 22:18 | 10.44104 | -75.51296 | 15 ft | 24 kts | 182° |
| 2026-05-05 22:18 | 10.43937 | -75.51302 | 14 ft | 24 kts | 182° |
| 2026-05-05 22:18 | 10.43764 | -75.51310 | 14 ft | 25 kts | 182° |
| 2026-05-05 22:19 | 10.43600 | -75.51316 | 15 ft | 22 kts | 182° |
| 2026-05-05 22:19 | 10.43453 | -75.51323 | 18 ft | 20 kts | 184° |
| 2026-05-05 22:19 | 10.43322 | -75.51330 | 18 ft | 18 kts | 182° |
| 2026-05-05 22:19 | 10.43226 | -75.51323 | 18 ft | 9 kts | 139° |
| 2026-05-05 22:20 | 10.43177 | -75.51270 | 17 ft | 12 kts | 135° |
| 2026-05-05 22:20 | 10.43107 | -75.51234 | 17 ft | 11 kts | 183° |
| 2026-05-05 22:20 | 10.43071 | -75.51260 | 17 ft | 10 kts | 249° |
| 2026-05-05 22:20 | 10.43073 | -75.51319 | 18 ft | 7 kts | 289° |
| 2026-05-05 22:21 | 10.43132 | -75.51337 | 19 ft | 9 kts | 1° |
| 2026-05-05 22:21 | 10.43197 | -75.51334 | 19 ft | 3 kts | 2° |
| 2026-05-05 22:21 | 10.43198 | -75.51334 | 19 ft | 0 kts | 2° |
| 2026-05-05 22:21 | 10.43568 | -75.51319 | 16 ft | 91 kts | 2° |
| 2026-05-05 22:22 | 10.44095 | -75.51299 | 13 ft | 133 kts | 2° |
| 2026-05-05 22:22 | 10.45143 | -75.51265 | 219 ft | 167 kts | 1° |
| 2026-05-05 22:22 | 10.46367 | -75.51257 | 751 ft | 183 kts | 358° |
| 2026-05-05 22:22 | 10.47697 | -75.51245 | 1340 ft | 200 kts | 0° |
| 2026-05-05 22:23 | 10.49133 | -75.51185 | 1941 ft | 212 kts | 4° |
| 2026-05-05 22:23 | 10.50537 | -75.50728 | 2650 ft | 219 kts | 39° |
| 2026-05-05 22:23 | 10.51320 | -75.49426 | 3433 ft | 222 kts | 83° |
| 2026-05-05 22:23 | 10.51051 | -75.47906 | 4275 ft | 225 kts | 121° |
| 2026-05-05 22:24 | 10.49862 | -75.46889 | 5177 ft | 228 kts | 153° |
| 2026-05-05 22:24 | 10.48357 | -75.46356 | 6087 ft | 231 kts | 162° |
| 2026-05-05 22:24 | 10.46794 | -75.45964 | 6901 ft | 232 kts | 164° |
| 2026-05-05 22:24 | 10.45217 | -75.45573 | 7688 ft | 235 kts | 163° |
| 2026-05-05 22:25 | 10.43632 | -75.45143 | 8466 ft | 237 kts | 161° |
| 2026-05-05 22:25 | 10.42040 | -75.44669 | 9244 ft | 239 kts | 160° |
| 2026-05-05 22:25 | 10.40464 | -75.44169 | 9992 ft | 242 kts | 160° |
| 2026-05-05 22:25 | 10.38763 | -75.43684 | 10385 ft | 263 kts | 162° |
| 2026-05-05 22:26 | 10.36935 | -75.43220 | 10661 ft | 286 kts | 163° |
| 2026-05-05 22:26 | 10.34916 | -75.42726 | 10923 ft | 310 kts | 164° |
| 2026-05-05 22:26 | 10.32737 | -75.42193 | 11156 ft | 333 kts | 164° |
| 2026-05-05 22:26 | 10.30416 | -75.41619 | 11451 ft | 352 kts | 164° |
| 2026-05-05 22:27 | 10.28010 | -75.41016 | 12046 ft | 359 kts | 163° |
| 2026-05-05 22:27 | 10.25577 | -75.40402 | 12716 ft | 363 kts | 163° |
| 2026-05-05 22:27 | 10.23111 | -75.39773 | 13402 ft | 368 kts | 163° |
| 2026-05-05 22:27 | 10.20616 | -75.39133 | 14012 ft | 372 kts | 163° |
| 2026-05-05 22:28 | 10.18099 | -75.38486 | 14615 ft | 375 kts | 163° |
| 2026-05-05 22:28 | 10.15555 | -75.37833 | 15204 ft | 378 kts | 163° |
| 2026-05-05 22:28 | 10.12994 | -75.37180 | 15792 ft | 382 kts | 163° |
| 2026-05-05 22:28 | 10.10405 | -75.36519 | 16380 ft | 385 kts | 163° |
| 2026-05-05 22:29 | 10.07800 | -75.35851 | 16972 ft | 389 kts | 163° |
| 2026-05-05 22:29 | 10.05168 | -75.35174 | 17540 ft | 392 kts | 163° |
| 2026-05-05 22:29 | 10.02509 | -75.34489 | 18114 ft | 396 kts | 163° |
| 2026-05-05 22:29 | 9.99860 | -75.33807 | 18595 ft | 399 kts | 164° |
| 2026-05-05 22:30 | 9.97154 | -75.33111 | 19064 ft | 404 kts | 164° |
| 2026-05-05 22:30 | 9.94418 | -75.32412 | 19533 ft | 408 kts | 164° |
| 2026-05-05 22:30 | 9.91651 | -75.31707 | 20006 ft | 412 kts | 164° |
| 2026-05-05 22:30 | 9.88855 | -75.30996 | 20469 ft | 416 kts | 164° |
| 2026-05-05 22:31 | 9.86035 | -75.30278 | 20917 ft | 420 kts | 164° |
| 2026-05-05 22:31 | 9.83804 | -75.29709 | 21260 ft | 423 kts | 165° |
| 2026-05-05 22:31 | 9.80886 | -75.28962 | 21703 ft | 428 kts | 165° |
| 2026-05-05 22:31 | 9.77986 | -75.28217 | 22127 ft | 431 kts | 165° |
| 2026-05-05 22:32 | 9.75067 | -75.27469 | 22541 ft | 435 kts | 165° |
| 2026-05-05 22:32 | 9.72116 | -75.26715 | 22941 ft | 439 kts | 165° |
| 2026-05-05 22:32 | 9.69180 | -75.25966 | 23334 ft | 443 kts | 165° |
| 2026-05-05 22:32 | 9.66141 | -75.25192 | 23671 ft | 446 kts | 165° |
| 2026-05-05 22:33 | 9.63166 | -75.24435 | 24000 ft | 448 kts | 165° |
| 2026-05-05 22:33 | 9.60134 | -75.23662 | 24342 ft | 450 kts | 165° |
| 2026-05-05 22:33 | 9.57092 | -75.22886 | 24676 ft | 452 kts | 165° |
| 2026-05-05 22:33 | 9.54024 | -75.22102 | 25005 ft | 454 kts | 165° |
| 2026-05-05 22:34 | 9.50952 | -75.21319 | 25331 ft | 456 kts | 165° |
| 2026-05-05 22:34 | 9.47870 | -75.20533 | 25645 ft | 458 kts | 165° |
| 2026-05-05 22:34 | 9.44773 | -75.19743 | 25962 ft | 460 kts | 165° |
| 2026-05-05 22:34 | 9.41661 | -75.18951 | 26271 ft | 462 kts | 165° |
| 2026-05-05 22:35 | 9.38537 | -75.18154 | 26580 ft | 464 kts | 165° |
| 2026-05-05 22:35 | 9.35407 | -75.17355 | 26881 ft | 465 kts | 165° |
| 2026-05-05 22:35 | 9.32304 | -75.16562 | 27177 ft | 467 kts | 165° |
| 2026-05-05 22:35 | 9.29151 | -75.15755 | 27484 ft | 469 kts | 165° |
| 2026-05-05 22:36 | 9.25978 | -75.14946 | 27778 ft | 470 kts | 165° |
| 2026-05-05 22:36 | 9.22801 | -75.14138 | 28060 ft | 472 kts | 166° |
| 2026-05-05 22:36 | 9.19614 | -75.13327 | 28328 ft | 474 kts | 166° |
| 2026-05-05 22:36 | 9.16411 | -75.12512 | 28596 ft | 475 kts | 166° |
| 2026-05-05 22:37 | 9.13198 | -75.11696 | 28850 ft | 477 kts | 166° |
| 2026-05-05 22:37 | 9.09971 | -75.10877 | 29093 ft | 479 kts | 166° |
| 2026-05-05 22:37 | 9.06739 | -75.10057 | 29330 ft | 480 kts | 166° |
| 2026-05-05 22:37 | 9.03491 | -75.09231 | 29561 ft | 482 kts | 166° |
| 2026-05-05 22:38 | 9.00279 | -75.08414 | 29765 ft | 483 kts | 166° |
| 2026-05-05 22:38 | 8.96975 | -75.07573 | 29962 ft | 484 kts | 166° |
| 2026-05-05 22:38 | 8.93758 | -75.06754 | 30198 ft | 483 kts | 166° |
| 2026-05-05 22:38 | 8.90500 | -75.05924 | 30437 ft | 482 kts | 166° |
| 2026-05-05 22:39 | 8.87252 | -75.05097 | 30675 ft | 482 kts | 166° |
| 2026-05-05 22:39 | 8.83996 | -75.04270 | 30812 ft | 481 kts | 166° |
| 2026-05-05 22:39 | 8.80774 | -75.03451 | 30849 ft | 476 kts | 166° |
| 2026-05-05 22:40 | 8.74381 | -75.01828 | 30847 ft | 472 kts | 166° |
| 2026-05-05 22:40 | 8.68010 | -75.00214 | 30850 ft | 472 kts | 166° |
| 2026-05-05 22:41 | 8.61640 | -74.98596 | 30847 ft | 472 kts | 166° |
| 2026-05-05 22:41 | 8.55311 | -74.96982 | 30847 ft | 472 kts | 166° |
| 2026-05-05 22:42 | 8.48943 | -74.95365 | 30838 ft | 472 kts | 166° |
| 2026-05-05 22:42 | 8.42584 | -74.93755 | 30842 ft | 471 kts | 166° |
| 2026-05-05 22:43 | 8.36219 | -74.92140 | 30837 ft | 471 kts | 166° |
| 2026-05-05 22:43 | 8.29861 | -74.90531 | 30841 ft | 471 kts | 166° |
| 2026-05-05 22:44 | 8.23510 | -74.88923 | 30845 ft | 471 kts | 166° |
| 2026-05-05 22:44 | 8.17159 | -74.87313 | 30845 ft | 470 kts | 166° |
| 2026-05-05 22:45 | 8.10854 | -74.85718 | 30847 ft | 470 kts | 166° |
| 2026-05-05 22:45 | 8.04508 | -74.84113 | 30852 ft | 470 kts | 166° |
| 2026-05-05 22:46 | 7.98159 | -74.82509 | 30849 ft | 470 kts | 166° |
| 2026-05-05 22:46 | 7.91808 | -74.80901 | 30855 ft | 470 kts | 166° |
| 2026-05-05 22:47 | 7.85459 | -74.79289 | 30859 ft | 471 kts | 166° |
| 2026-05-05 22:47 | 7.79114 | -74.77682 | 30864 ft | 471 kts | 166° |
| 2026-05-05 22:48 | 7.72755 | -74.76076 | 30867 ft | 471 kts | 166° |
| 2026-05-05 22:48 | 7.66300 | -74.75061 | 30870 ft | 471 kts | 180° |
| 2026-05-05 22:49 | 7.59805 | -74.75362 | 30877 ft | 471 kts | 183° |
| 2026-05-05 22:49 | 7.53264 | -74.75686 | 30878 ft | 471 kts | 182° |
| 2026-05-05 22:50 | 7.46716 | -74.75990 | 30883 ft | 471 kts | 182° |
| 2026-05-05 22:50 | 7.40172 | -74.76299 | 30885 ft | 471 kts | 182° |
| 2026-05-05 22:51 | 7.33631 | -74.76618 | 30892 ft | 471 kts | 182° |
| 2026-05-05 22:51 | 7.27080 | -74.76935 | 30898 ft | 471 kts | 182° |
| 2026-05-05 22:52 | 7.20531 | -74.77250 | 30899 ft | 471 kts | 182° |
| 2026-05-05 22:52 | 7.14560 | -74.77532 | 30913 ft | 471 kts | 182° |
| 2026-05-05 22:53 | 7.08060 | -74.77840 | 30916 ft | 471 kts | 182° |
| 2026-05-05 22:53 | 7.01510 | -74.78162 | 30916 ft | 471 kts | 182° |
| 2026-05-05 22:54 | 6.94971 | -74.78485 | 30928 ft | 471 kts | 182° |
| 2026-05-05 22:54 | 6.88428 | -74.78800 | 30933 ft | 471 kts | 182° |
| 2026-05-05 22:55 | 6.81884 | -74.79114 | 30933 ft | 471 kts | 182° |
| 2026-05-05 22:55 | 6.75344 | -74.79432 | 30935 ft | 470 kts | 182° |
| 2026-05-05 22:56 | 6.68808 | -74.79747 | 30940 ft | 470 kts | 182° |
| 2026-05-05 22:56 | 6.62275 | -74.80055 | 30937 ft | 470 kts | 182° |
| 2026-05-05 22:57 | 6.55745 | -74.80366 | 30939 ft | 470 kts | 182° |
| 2026-05-05 22:57 | 6.49258 | -74.80683 | 30946 ft | 470 kts | 182° |
| 2026-05-05 22:58 | 6.42737 | -74.81004 | 30934 ft | 469 kts | 182° |
| 2026-05-05 22:58 | 6.36221 | -74.81313 | 30933 ft | 469 kts | 182° |
| 2026-05-05 22:59 | 6.29790 | -74.81621 | 30924 ft | 468 kts | 182° |
| 2026-05-05 22:59 | 6.24214 | -74.81891 | 30919 ft | 469 kts | 182° |
| 2026-05-05 23:00 | 6.14605 | -74.82357 | 30922 ft | 468 kts | 181° |
| 2026-05-05 23:00 | 6.08104 | -74.82662 | 30918 ft | 469 kts | 181° |
| 2026-05-05 23:01 | 6.01586 | -74.82988 | 30911 ft | 469 kts | 184° |
| 2026-05-05 23:01 | 5.95213 | -74.84359 | 30911 ft | 470 kts | 194° |
| 2026-05-05 23:02 | 5.89062 | -74.86020 | 30904 ft | 470 kts | 194° |
| 2026-05-05 23:02 | 5.82738 | -74.87711 | 30906 ft | 470 kts | 194° |
| 2026-05-05 23:03 | 5.76445 | -74.89400 | 30670 ft | 471 kts | 194° |
| 2026-05-05 23:03 | 5.73279 | -74.90254 | 29699 ft | 474 kts | 194° |
| 2026-05-05 23:03 | 5.70100 | -74.91113 | 28890 ft | 470 kts | 194° |
| 2026-05-05 23:04 | 5.66953 | -74.91959 | 28076 ft | 467 kts | 194° |
| 2026-05-05 23:04 | 5.63854 | -74.92791 | 27273 ft | 464 kts | 194° |
| 2026-05-05 23:04 | 5.60715 | -74.93631 | 26444 ft | 462 kts | 194° |
| 2026-05-05 23:04 | 5.57620 | -74.94459 | 25642 ft | 460 kts | 194° |
| 2026-05-05 23:05 | 5.54525 | -74.95285 | 24834 ft | 459 kts | 194° |
| 2026-05-05 23:05 | 5.51447 | -74.96110 | 24049 ft | 458 kts | 194° |
| 2026-05-05 23:05 | 5.48368 | -74.96939 | 23211 ft | 457 kts | 194° |
| 2026-05-05 23:05 | 5.45370 | -74.97748 | 22834 ft | 445 kts | 194° |
| 2026-05-05 23:06 | 5.42441 | -74.98529 | 22706 ft | 427 kts | 192° |
| 2026-05-05 23:06 | 5.39563 | -74.98906 | 22565 ft | 410 kts | 179° |
| 2026-05-05 23:06 | 5.36774 | -74.98679 | 22329 ft | 395 kts | 168° |
| 2026-05-05 23:06 | 5.34162 | -74.97927 | 21632 ft | 391 kts | 155° |
| 2026-05-05 23:07 | 5.31695 | -74.96844 | 21247 ft | 384 kts | 155° |
| 2026-05-05 23:07 | 5.29249 | -74.95788 | 20732 ft | 379 kts | 155° |
| 2026-05-05 23:07 | 5.26838 | -74.94765 | 19906 ft | 374 kts | 155° |
| 2026-05-05 23:07 | 5.24458 | -74.93767 | 19135 ft | 368 kts | 155° |
| 2026-05-05 23:08 | 5.22206 | -74.92630 | 18486 ft | 358 kts | 144° |
| 2026-05-05 23:08 | 5.20304 | -74.91069 | 17895 ft | 350 kts | 131° |
| 2026-05-05 23:08 | 5.18810 | -74.89164 | 17179 ft | 346 kts | 120° |
| 2026-05-05 23:08 | 5.17639 | -74.87098 | 16667 ft | 333 kts | 118° |
| 2026-05-05 23:09 | 5.16537 | -74.85146 | 16509 ft | 314 kts | 118° |
| 2026-05-05 23:09 | 5.15491 | -74.83307 | 16515 ft | 295 kts | 119° |
| 2026-05-05 23:09 | 5.14470 | -74.81546 | 16432 ft | 293 kts | 119° |
| 2026-05-05 23:09 | 5.13462 | -74.79809 | 16237 ft | 289 kts | 119° |
| 2026-05-05 23:10 | 5.12451 | -74.78068 | 16182 ft | 288 kts | 119° |
| 2026-05-05 23:10 | 5.11444 | -74.76327 | 16120 ft | 288 kts | 119° |
| 2026-05-05 23:10 | 5.10441 | -74.74588 | 16064 ft | 288 kts | 119° |
| 2026-05-05 23:10 | 5.09439 | -74.72854 | 16017 ft | 288 kts | 119° |
| 2026-05-05 23:11 | 5.08441 | -74.71131 | 15956 ft | 282 kts | 119° |
| 2026-05-05 23:11 | 5.07456 | -74.69436 | 15889 ft | 281 kts | 119° |
| 2026-05-05 23:11 | 5.06473 | -74.67745 | 15844 ft | 281 kts | 119° |
| 2026-05-05 23:11 | 5.05489 | -74.66051 | 15789 ft | 281 kts | 119° |
| 2026-05-05 23:12 | 5.04509 | -74.64366 | 15739 ft | 280 kts | 119° |
| 2026-05-05 23:12 | 5.03530 | -74.62680 | 15690 ft | 280 kts | 119° |
| 2026-05-05 23:12 | 5.02551 | -74.60991 | 15635 ft | 280 kts | 119° |
| 2026-05-05 23:12 | 5.01578 | -74.59313 | 15582 ft | 280 kts | 118° |
| 2026-05-05 23:13 | 5.00607 | -74.57638 | 15541 ft | 280 kts | 119° |
| 2026-05-05 23:13 | 4.99633 | -74.55960 | 15488 ft | 278 kts | 119° |
| 2026-05-05 23:13 | 4.98976 | -74.54827 | 15451 ft | 278 kts | 119° |
| 2026-05-05 23:13 | 4.97684 | -74.52601 | 15162 ft | 279 kts | 119° |
| 2026-05-05 23:14 | 4.96702 | -74.50912 | 14799 ft | 281 kts | 119° |
| 2026-05-05 23:14 | 4.95718 | -74.49217 | 14430 ft | 283 kts | 119° |
| 2026-05-05 23:14 | 4.94722 | -74.47504 | 14040 ft | 286 kts | 120° |
| 2026-05-05 23:14 | 4.93714 | -74.45774 | 13636 ft | 289 kts | 120° |
| 2026-05-05 23:15 | 4.92723 | -74.44069 | 13230 ft | 287 kts | 120° |
| 2026-05-05 23:15 | 4.91741 | -74.42377 | 12861 ft | 275 kts | 120° |
| 2026-05-05 23:15 | 4.90655 | -74.40853 | 12569 ft | 262 kts | 130° |
| 2026-05-05 23:15 | 4.89492 | -74.39526 | 12415 ft | 246 kts | 130° |
| 2026-05-05 23:16 | 4.88412 | -74.38283 | 12251 ft | 232 kts | 130° |
| 2026-05-05 23:16 | 4.87372 | -74.37084 | 12121 ft | 218 kts | 130° |
| 2026-05-05 23:16 | 4.86383 | -74.35946 | 11939 ft | 221 kts | 130° |
| 2026-05-05 23:16 | 4.85379 | -74.34789 | 11765 ft | 220 kts | 130° |
| 2026-05-05 23:17 | 4.84372 | -74.33628 | 11608 ft | 220 kts | 130° |
| 2026-05-05 23:17 | 4.83370 | -74.32475 | 11453 ft | 220 kts | 130° |
| 2026-05-05 23:17 | 4.82368 | -74.31321 | 11285 ft | 219 kts | 130° |
| 2026-05-05 23:17 | 4.81389 | -74.30195 | 11125 ft | 209 kts | 130° |
| 2026-05-05 23:18 | 4.80451 | -74.29134 | 10973 ft | 198 kts | 131° |
| 2026-05-05 23:18 | 4.79573 | -74.28118 | 10828 ft | 186 kts | 128° |
| 2026-05-05 23:18 | 4.78795 | -74.27132 | 10680 ft | 176 kts | 127° |
| 2026-05-05 23:18 | 4.78067 | -74.26181 | 10502 ft | 168 kts | 127° |
| 2026-05-05 23:19 | 4.77369 | -74.25263 | 10332 ft | 163 kts | 126° |
| 2026-05-05 23:19 | 4.76694 | -74.24373 | 10172 ft | 157 kts | 126° |
| 2026-05-05 23:19 | 4.76049 | -74.23521 | 9988 ft | 154 kts | 125° |
| 2026-05-05 23:19 | 4.75403 | -74.22669 | 9778 ft | 153 kts | 126° |
| 2026-05-05 23:20 | 4.74757 | -74.21815 | 9588 ft | 153 kts | 126° |
| 2026-05-05 23:20 | 4.74116 | -74.20969 | 9437 ft | 152 kts | 126° |
| 2026-05-05 23:20 | 4.73685 | -74.20399 | 9311 ft | 151 kts | 126° |
| 2026-05-05 23:20 | 4.72847 | -74.19294 | 9029 ft | 152 kts | 126° |
| 2026-05-05 23:21 | 4.72211 | -74.18453 | 8814 ft | 150 kts | 127° |
| 2026-05-05 23:21 | 4.71583 | -74.17624 | 8586 ft | 149 kts | 127° |
| 2026-05-05 23:21 | 4.70968 | -74.16804 | 8394 ft | 149 kts | 126° |
| 2026-05-05 23:21 | 4.70423 | -74.16085 | 8364 ft | 96 kts | 128° |
| 2026-05-05 23:22 | 4.70160 | -74.15741 | 8364 ft | 49 kts | 127° |
| 2026-05-05 23:22 | 4.69963 | -74.15487 | 8365 ft | 43 kts | 127° |
| 2026-05-05 23:22 | 4.69797 | -74.15266 | 8366 ft | 34 kts | 126° |
| 2026-05-05 23:22 | 4.69732 | -74.15122 | 8365 ft | 22 kts | 105° |
| 2026-05-05 23:23 | 4.69707 | -74.14977 | 8365 ft | 17 kts | 96° |
| 2026-05-05 23:23 | 4.69701 | -74.14863 | 8365 ft | 12 kts | 79° |
| 2026-05-05 23:23 | 4.69757 | -74.14804 | 8366 ft | 12 kts | 35° |
| 2026-05-05 23:23 | 4.69824 | -74.14756 | 8366 ft | 10 kts | 36° |
| 2026-05-05 23:24 | 4.69851 | -74.14728 | 8366 ft | 4 kts | 66° |
| 2026-05-05 23:24 | 4.69848 | -74.14709 | 8366 ft | 4 kts | 110° |
| 2026-05-05 23:24 | 4.69816 | -74.14679 | 8366 ft | 6 kts | 175° |
| 2026-05-05 23:24 | 4.69781 | -74.14701 | 8366 ft | 1 kts | 218° |
| 2026-05-05 23:25 | 4.69779 | -74.14703 | 8366 ft | 0 kts | 219° |